sensor_id;sensor_type;location;lat;lon;timestamp;temperature;humidity
27848;DHT22;15212;48.830;8.730;2024-02-26T00:00:13;6.00;99.90
27848;DHT22;15212;48.830;8.730;2024-02-26T00:02:42;6.00;99.90
27848;DHT22;15212;48.830;8.730;2024-02-26T00:05:10;6.00;99.90
27848;DHT22;15212;48.830;8.730;2024-02-26T00:07:39;6.10;99.90
27848;DHT22;15212;48.830;8.730;2024-02-26T00:10:08;6.10;99.90
27848;DHT22;15212;48.830;8.730;2024-02-26T00:12:37;6.10;99.90
27848;DHT22;15212;48.830;8.730;2024-02-26T00:15:08;6.10;99.90
27848;DHT22;15212;48.830;8.730;2024-02-26T00:17:37;6.20;99.90
27848;DHT22;15212;48.830;8.730;2024-02-26T00:22:54;6.20;99.90
27848;DHT22;15212;48.830;8.730;2024-02-26T00:25:23;6.20;99.90
27848;DHT22;15212;48.830;8.730;2024-02-26T00:27:51;6.20;99.90
27848;DHT22;15212;48.830;8.730;2024-02-26T00:30:20;6.20;99.90
27848;DHT22;15212;48.830;8.730;2024-02-26T00:32:49;6.20;99.90
27848;DHT22;15212;48.830;8.730;2024-02-26T00:35:18;6.20;99.90
27848;DHT22;15212;48.830;8.730;2024-02-26T00:37:47;6.20;99.90
27848;DHT22;15212;48.830;8.730;2024-02-26T00:40:15;6.10;99.90
27848;DHT22;15212;48.830;8.730;2024-02-26T00:42:44;6.10;99.90
27848;DHT22;15212;48.830;8.730;2024-02-26T00:45:14;6.20;99.90
27848;DHT22;15212;48.830;8.730;2024-02-26T00:47:43;6.20;99.90
27848;DHT22;15212;48.830;8.730;2024-02-26T00:50:14;6.20;99.90
27848;DHT22;15212;48.830;8.730;2024-02-26T00:52:43;6.20;99.90
27848;DHT22;15212;48.830;8.730;2024-02-26T00:55:11;6.30;99.90
27848;DHT22;15212;48.830;8.730;2024-02-26T00:57:39;6.20;99.90
27848;DHT22;15212;48.830;8.730;2024-02-26T01:00:08;6.20;99.90
27848;DHT22;15212;48.830;8.730;2024-02-26T01:02:37;6.20;99.90
27848;DHT22;15212;48.830;8.730;2024-02-26T01:05:06;6.20;99.90
27848;DHT22;15212;48.830;8.730;2024-02-26T01:07:37;6.20;99.90
27848;DHT22;15212;48.830;8.730;2024-02-26T01:10:06;6.20;99.90
27848;DHT22;15212;48.830;8.730;2024-02-26T01:12:35;6.10;99.90
27848;DHT22;15212;48.830;8.730;2024-02-26T01:15:04;6.10;99.90
27848;DHT22;15212;48.830;8.730;2024-02-26T01:17:32;6.10;99.90
27848;DHT22;15212;48.830;8.730;2024-02-26T01:20:01;6.10;99.90
27848;DHT22;15212;48.830;8.730;2024-02-26T01:22:29;6.10;99.90
27848;DHT22;15212;48.830;8.730;2024-02-26T01:24:58;6.00;99.90
27848;DHT22;15212;48.830;8.730;2024-02-26T01:27:26;6.00;99.90
27848;DHT22;15212;48.830;8.730;2024-02-26T01:29:55;6.00;99.90
27848;DHT22;15212;48.830;8.730;2024-02-26T01:32:23;6.00;99.90
27848;DHT22;15212;48.830;8.730;2024-02-26T01:34:51;6.00;99.90
27848;DHT22;15212;48.830;8.730;2024-02-26T01:37:41;6.10;99.90
27848;DHT22;15212;48.830;8.730;2024-02-26T01:40:11;6.10;99.90
27848;DHT22;15212;48.830;8.730;2024-02-26T01:42:41;6.20;99.90
27848;DHT22;15212;48.830;8.730;2024-02-26T01:45:15;6.20;99.90
27848;DHT22;15212;48.830;8.730;2024-02-26T01:47:45;6.30;99.90
27848;DHT22;15212;48.830;8.730;2024-02-26T01:50:16;6.20;99.90
27848;DHT22;15212;48.830;8.730;2024-02-26T01:52:47;6.20;99.90
27848;DHT22;15212;48.830;8.730;2024-02-26T01:55:18;6.20;99.90
27848;DHT22;15212;48.830;8.730;2024-02-26T01:57:49;6.30;99.90
27848;DHT22;15212;48.830;8.730;2024-02-26T02:00:19;6.30;99.90
27848;DHT22;15212;48.830;8.730;2024-02-26T02:02:48;6.30;99.90
27848;DHT22;15212;48.830;8.730;2024-02-26T02:05:20;6.40;99.90
27848;DHT22;15212;48.830;8.730;2024-02-26T02:07:49;6.30;99.90
27848;DHT22;15212;48.830;8.730;2024-02-26T02:10:18;6.30;99.90
27848;DHT22;15212;48.830;8.730;2024-02-26T02:12:49;6.30;99.90
27848;DHT22;15212;48.830;8.730;2024-02-26T02:15:17;6.30;99.90
27848;DHT22;15212;48.830;8.730;2024-02-26T02:17:46;6.30;99.90
27848;DHT22;15212;48.830;8.730;2024-02-26T02:20:16;6.40;99.90
27848;DHT22;15212;48.830;8.730;2024-02-26T02:22:46;6.40;99.90
27848;DHT22;15212;48.830;8.730;2024-02-26T02:25:14;6.30;99.90
27848;DHT22;15212;48.830;8.730;2024-02-26T02:27:43;6.30;99.90
27848;DHT22;15212;48.830;8.730;2024-02-26T02:30:12;6.30;99.90
27848;DHT22;15212;48.830;8.730;2024-02-26T02:32:42;6.20;99.90
27848;DHT22;15212;48.830;8.730;2024-02-26T02:35:11;6.10;99.90
27848;DHT22;15212;48.830;8.730;2024-02-26T02:37:39;6.10;99.90
27848;DHT22;15212;48.830;8.730;2024-02-26T02:40:08;6.00;99.90
27848;DHT22;15212;48.830;8.730;2024-02-26T02:42:36;5.90;99.90
27848;DHT22;15212;48.830;8.730;2024-02-26T02:45:05;5.90;99.90
27848;DHT22;15212;48.830;8.730;2024-02-26T02:47:36;5.90;99.90
27848;DHT22;15212;48.830;8.730;2024-02-26T02:50:05;5.80;99.90
27848;DHT22;15212;48.830;8.730;2024-02-26T02:52:34;5.70;99.90
27848;DHT22;15212;48.830;8.730;2024-02-26T02:55:02;5.60;99.90
27848;DHT22;15212;48.830;8.730;2024-02-26T02:57:31;5.60;99.90
27848;DHT22;15212;48.830;8.730;2024-02-26T03:00:00;5.50;99.90
27848;DHT22;15212;48.830;8.730;2024-02-26T03:02:30;5.40;99.90
27848;DHT22;15212;48.830;8.730;2024-02-26T03:04:58;5.40;99.90
27848;DHT22;15212;48.830;8.730;2024-02-26T03:07:27;5.30;99.90
27848;DHT22;15212;48.830;8.730;2024-02-26T03:09:55;5.30;99.90
27848;DHT22;15212;48.830;8.730;2024-02-26T03:12:24;5.30;99.90
27848;DHT22;15212;48.830;8.730;2024-02-26T03:14:54;5.30;99.90
27848;DHT22;15212;48.830;8.730;2024-02-26T03:17:22;5.30;99.90
27848;DHT22;15212;48.830;8.730;2024-02-26T03:19:53;5.30;99.90
27848;DHT22;15212;48.830;8.730;2024-02-26T03:22:22;5.30;99.90
27848;DHT22;15212;48.830;8.730;2024-02-26T03:24:50;5.30;99.90
27848;DHT22;15212;48.830;8.730;2024-02-26T03:27:19;5.30;99.90
27848;DHT22;15212;48.830;8.730;2024-02-26T03:29:47;5.30;99.90
27848;DHT22;15212;48.830;8.730;2024-02-26T03:32:15;5.30;99.90
27848;DHT22;15212;48.830;8.730;2024-02-26T03:34:44;5.30;99.90
27848;DHT22;15212;48.830;8.730;2024-02-26T03:37:12;5.30;99.90
27848;DHT22;15212;48.830;8.730;2024-02-26T03:39:41;5.30;99.90
27848;DHT22;15212;48.830;8.730;2024-02-26T03:42:10;5.20;99.90
27848;DHT22;15212;48.830;8.730;2024-02-26T03:44:38;5.20;99.90
27848;DHT22;15212;48.830;8.730;2024-02-26T03:47:06;5.20;99.90
27848;DHT22;15212;48.830;8.730;2024-02-26T03:49:35;5.20;99.90
27848;DHT22;15212;48.830;8.730;2024-02-26T03:52:03;5.20;99.90
27848;DHT22;15212;48.830;8.730;2024-02-26T03:54:32;5.10;99.90
27848;DHT22;15212;48.830;8.730;2024-02-26T03:57:00;5.20;99.90
27848;DHT22;15212;48.830;8.730;2024-02-26T03:59:28;5.20;99.90
27848;DHT22;15212;48.830;8.730;2024-02-26T04:01:57;5.20;99.90
27848;DHT22;15212;48.830;8.730;2024-02-26T04:04:26;5.20;99.90
27848;DHT22;15212;48.830;8.730;2024-02-26T04:06:54;5.20;99.90
27848;DHT22;15212;48.830;8.730;2024-02-26T04:09:22;5.20;99.90
27848;DHT22;15212;48.830;8.730;2024-02-26T04:11:51;5.10;99.90
27848;DHT22;15212;48.830;8.730;2024-02-26T04:14:19;5.10;99.90
27848;DHT22;15212;48.830;8.730;2024-02-26T04:16:47;5.10;99.90
27848;DHT22;15212;48.830;8.730;2024-02-26T04:19:18;5.00;99.90
27848;DHT22;15212;48.830;8.730;2024-02-26T04:21:46;5.00;99.90
27848;DHT22;15212;48.830;8.730;2024-02-26T04:24:15;5.00;99.90
27848;DHT22;15212;48.830;8.730;2024-02-26T04:26:43;5.00;99.90
27848;DHT22;15212;48.830;8.730;2024-02-26T04:29:12;5.00;99.90
27848;DHT22;15212;48.830;8.730;2024-02-26T04:31:40;5.10;99.90
27848;DHT22;15212;48.830;8.730;2024-02-26T04:34:09;5.00;99.90
27848;DHT22;15212;48.830;8.730;2024-02-26T04:36:37;5.00;99.90
27848;DHT22;15212;48.830;8.730;2024-02-26T04:39:06;5.00;99.90
27848;DHT22;15212;48.830;8.730;2024-02-26T04:41:34;5.00;99.90
27848;DHT22;15212;48.830;8.730;2024-02-26T04:44:03;5.00;99.90
27848;DHT22;15212;48.830;8.730;2024-02-26T04:46:31;5.00;99.90
27848;DHT22;15212;48.830;8.730;2024-02-26T04:48:59;5.10;99.90
27848;DHT22;15212;48.830;8.730;2024-02-26T04:51:28;5.10;99.90
27848;DHT22;15212;48.830;8.730;2024-02-26T04:53:56;5.10;99.90
27848;DHT22;15212;48.830;8.730;2024-02-26T04:56:25;5.10;99.90
27848;DHT22;15212;48.830;8.730;2024-02-26T04:58:53;5.20;99.90
27848;DHT22;15212;48.830;8.730;2024-02-26T05:01:22;5.20;99.90
27848;DHT22;15212;48.830;8.730;2024-02-26T05:03:50;5.20;99.90
27848;DHT22;15212;48.830;8.730;2024-02-26T05:06:18;5.20;99.90
27848;DHT22;15212;48.830;8.730;2024-02-26T05:08:47;5.30;99.90
27848;DHT22;15212;48.830;8.730;2024-02-26T05:11:15;5.30;99.90
27848;DHT22;15212;48.830;8.730;2024-02-26T05:13:44;5.40;99.90
27848;DHT22;15212;48.830;8.730;2024-02-26T05:16:13;5.40;99.90
27848;DHT22;15212;48.830;8.730;2024-02-26T05:18:41;5.40;99.90
27848;DHT22;15212;48.830;8.730;2024-02-26T05:21:10;5.50;99.90
27848;DHT22;15212;48.830;8.730;2024-02-26T05:23:38;5.50;99.90
27848;DHT22;15212;48.830;8.730;2024-02-26T05:26:06;5.60;99.90
27848;DHT22;15212;48.830;8.730;2024-02-26T05:28:35;5.60;99.90
27848;DHT22;15212;48.830;8.730;2024-02-26T05:31:05;5.60;99.90
27848;DHT22;15212;48.830;8.730;2024-02-26T05:33:34;5.60;99.90
27848;DHT22;15212;48.830;8.730;2024-02-26T05:36:02;5.60;99.90
27848;DHT22;15212;48.830;8.730;2024-02-26T05:38:31;5.60;99.90
27848;DHT22;15212;48.830;8.730;2024-02-26T05:41:00;5.60;99.90
27848;DHT22;15212;48.830;8.730;2024-02-26T05:43:28;5.50;99.90
27848;DHT22;15212;48.830;8.730;2024-02-26T05:45:57;5.60;99.90
27848;DHT22;15212;48.830;8.730;2024-02-26T05:48:25;5.60;99.90
27848;DHT22;15212;48.830;8.730;2024-02-26T05:50:53;5.50;99.90
27848;DHT22;15212;48.830;8.730;2024-02-26T05:53:22;5.50;99.90
27848;DHT22;15212;48.830;8.730;2024-02-26T05:55:50;5.50;99.90
27848;DHT22;15212;48.830;8.730;2024-02-26T05:58:18;5.50;99.90
27848;DHT22;15212;48.830;8.730;2024-02-26T06:00:47;5.50;99.90
27848;DHT22;15212;48.830;8.730;2024-02-26T06:03:15;5.50;99.90
27848;DHT22;15212;48.830;8.730;2024-02-26T06:05:44;5.40;99.90
27848;DHT22;15212;48.830;8.730;2024-02-26T06:08:13;5.50;99.90
27848;DHT22;15212;48.830;8.730;2024-02-26T06:10:41;5.40;99.90
27848;DHT22;15212;48.830;8.730;2024-02-26T06:13:10;5.40;99.90
27848;DHT22;15212;48.830;8.730;2024-02-26T06:15:38;5.40;99.90
27848;DHT22;15212;48.830;8.730;2024-02-26T06:18:07;5.40;99.90
27848;DHT22;15212;48.830;8.730;2024-02-26T06:20:35;5.40;99.90
27848;DHT22;15212;48.830;8.730;2024-02-26T06:23:04;5.40;99.90
27848;DHT22;15212;48.830;8.730;2024-02-26T06:25:32;5.40;99.90
27848;DHT22;15212;48.830;8.730;2024-02-26T06:28:00;5.40;99.90
27848;DHT22;15212;48.830;8.730;2024-02-26T06:30:29;5.40;99.90
27848;DHT22;15212;48.830;8.730;2024-02-26T06:32:57;5.40;99.90
27848;DHT22;15212;48.830;8.730;2024-02-26T06:35:26;5.40;99.90
27848;DHT22;15212;48.830;8.730;2024-02-26T06:37:55;5.40;99.90
27848;DHT22;15212;48.830;8.730;2024-02-26T06:40:23;5.30;99.90
27848;DHT22;15212;48.830;8.730;2024-02-26T06:42:52;5.30;99.90
27848;DHT22;15212;48.830;8.730;2024-02-26T06:45:20;5.40;99.90
27848;DHT22;15212;48.830;8.730;2024-02-26T06:47:49;5.40;99.90
27848;DHT22;15212;48.830;8.730;2024-02-26T06:50:18;5.40;99.90
27848;DHT22;15212;48.830;8.730;2024-02-26T06:52:46;5.40;99.90
27848;DHT22;15212;48.830;8.730;2024-02-26T06:55:14;5.40;99.90
27848;DHT22;15212;48.830;8.730;2024-02-26T06:57:43;5.40;99.90
27848;DHT22;15212;48.830;8.730;2024-02-26T07:00:12;5.40;99.90
27848;DHT22;15212;48.830;8.730;2024-02-26T07:02:43;5.40;99.90
27848;DHT22;15212;48.830;8.730;2024-02-26T07:05:11;5.40;99.90
27848;DHT22;15212;48.830;8.730;2024-02-26T07:07:40;5.40;99.90
27848;DHT22;15212;48.830;8.730;2024-02-26T07:10:09;5.40;99.90
27848;DHT22;15212;48.830;8.730;2024-02-26T07:12:39;5.40;99.90
27848;DHT22;15212;48.830;8.730;2024-02-26T07:15:08;5.40;99.90
27848;DHT22;15212;48.830;8.730;2024-02-26T07:17:37;5.40;99.90
27848;DHT22;15212;48.830;8.730;2024-02-26T07:20:08;5.50;99.90
27848;DHT22;15212;48.830;8.730;2024-02-26T07:22:37;5.50;99.90
27848;DHT22;15212;48.830;8.730;2024-02-26T07:25:05;5.40;99.90
27848;DHT22;15212;48.830;8.730;2024-02-26T07:27:35;5.40;99.90
27848;DHT22;15212;48.830;8.730;2024-02-26T07:30:05;5.40;99.90
27848;DHT22;15212;48.830;8.730;2024-02-26T07:32:34;5.40;99.90
27848;DHT22;15212;48.830;8.730;2024-02-26T07:35:03;5.40;99.90
27848;DHT22;15212;48.830;8.730;2024-02-26T07:37:32;5.40;99.90
27848;DHT22;15212;48.830;8.730;2024-02-26T07:40:00;5.40;99.90
27848;DHT22;15212;48.830;8.730;2024-02-26T07:42:29;5.40;99.90
27848;DHT22;15212;48.830;8.730;2024-02-26T07:44:58;5.40;99.90
27848;DHT22;15212;48.830;8.730;2024-02-26T07:47:26;5.30;99.90
27848;DHT22;15212;48.830;8.730;2024-02-26T07:49:56;5.30;99.90
27848;DHT22;15212;48.830;8.730;2024-02-26T07:52:24;5.40;99.90
27848;DHT22;15212;48.830;8.730;2024-02-26T07:54:53;5.40;99.90
27848;DHT22;15212;48.830;8.730;2024-02-26T07:57:21;5.40;99.90
27848;DHT22;15212;48.830;8.730;2024-02-26T07:59:49;5.40;99.90
27848;DHT22;15212;48.830;8.730;2024-02-26T08:02:18;5.50;99.90
27848;DHT22;15212;48.830;8.730;2024-02-26T08:04:46;5.50;99.90
27848;DHT22;15212;48.830;8.730;2024-02-26T08:07:14;5.60;99.90
27848;DHT22;15212;48.830;8.730;2024-02-26T08:09:43;5.60;99.90
27848;DHT22;15212;48.830;8.730;2024-02-26T08:12:12;5.60;99.90
27848;DHT22;15212;48.830;8.730;2024-02-26T08:14:41;5.70;99.90
27848;DHT22;15212;48.830;8.730;2024-02-26T08:17:10;5.70;99.90
27848;DHT22;15212;48.830;8.730;2024-02-26T08:19:39;5.70;99.90
27848;DHT22;15212;48.830;8.730;2024-02-26T08:22:07;5.70;99.90
27848;DHT22;15212;48.830;8.730;2024-02-26T08:24:37;5.80;99.90
27848;DHT22;15212;48.830;8.730;2024-02-26T08:27:05;5.80;99.90
27848;DHT22;15212;48.830;8.730;2024-02-26T08:29:34;5.90;99.90
27848;DHT22;15212;48.830;8.730;2024-02-26T08:32:02;5.90;99.90
27848;DHT22;15212;48.830;8.730;2024-02-26T08:34:32;5.90;99.90
27848;DHT22;15212;48.830;8.730;2024-02-26T08:37:00;6.00;99.90
27848;DHT22;15212;48.830;8.730;2024-02-26T08:39:30;6.00;99.90
27848;DHT22;15212;48.830;8.730;2024-02-26T08:41:58;6.10;99.90
27848;DHT22;15212;48.830;8.730;2024-02-26T08:44:26;6.10;99.90
27848;DHT22;15212;48.830;8.730;2024-02-26T08:46:55;6.20;99.90
27848;DHT22;15212;48.830;8.730;2024-02-26T08:49:23;6.20;99.90
27848;DHT22;15212;48.830;8.730;2024-02-26T08:51:51;6.30;99.90
27848;DHT22;15212;48.830;8.730;2024-02-26T08:54:20;6.30;99.90
27848;DHT22;15212;48.830;8.730;2024-02-26T08:56:48;6.40;99.90
27848;DHT22;15212;48.830;8.730;2024-02-26T08:59:17;6.50;99.90
27848;DHT22;15212;48.830;8.730;2024-02-26T09:01:47;6.50;99.90
27848;DHT22;15212;48.830;8.730;2024-02-26T09:04:15;6.60;99.90
27848;DHT22;15212;48.830;8.730;2024-02-26T09:06:43;6.60;99.90
27848;DHT22;15212;48.830;8.730;2024-02-26T09:09:12;6.60;99.90
27848;DHT22;15212;48.830;8.730;2024-02-26T09:11:40;6.80;99.90
27848;DHT22;15212;48.830;8.730;2024-02-26T09:14:08;6.80;99.90
27848;DHT22;15212;48.830;8.730;2024-02-26T09:16:37;6.90;99.90
27848;DHT22;15212;48.830;8.730;2024-02-26T09:19:05;7.10;99.90
27848;DHT22;15212;48.830;8.730;2024-02-26T09:21:34;7.20;99.90
27848;DHT22;15212;48.830;8.730;2024-02-26T09:24:03;7.20;99.90
27848;DHT22;15212;48.830;8.730;2024-02-26T09:26:31;7.30;99.90
27848;DHT22;15212;48.830;8.730;2024-02-26T09:29:00;7.30;99.90
27848;DHT22;15212;48.830;8.730;2024-02-26T09:31:28;7.30;99.90
27848;DHT22;15212;48.830;8.730;2024-02-26T09:33:57;7.30;99.90
27848;DHT22;15212;48.830;8.730;2024-02-26T09:36:25;7.20;99.90
27848;DHT22;15212;48.830;8.730;2024-02-26T09:38:54;7.20;99.90
27848;DHT22;15212;48.830;8.730;2024-02-26T09:41:22;7.20;99.90
27848;DHT22;15212;48.830;8.730;2024-02-26T09:43:52;7.20;99.90
27848;DHT22;15212;48.830;8.730;2024-02-26T09:46:29;7.30;99.90
27848;DHT22;15212;48.830;8.730;2024-02-26T09:48:54;7.30;99.90
27848;DHT22;15212;48.830;8.730;2024-02-26T09:51:23;7.40;99.90
27848;DHT22;15212;48.830;8.730;2024-02-26T09:53:56;7.50;99.90
27848;DHT22;15212;48.830;8.730;2024-02-26T09:56:29;7.60;99.90
27848;DHT22;15212;48.830;8.730;2024-02-26T09:58:59;7.70;99.90
27848;DHT22;15212;48.830;8.730;2024-02-26T10:01:28;7.80;99.90
27848;DHT22;15212;48.830;8.730;2024-02-26T10:03:58;7.90;99.90
27848;DHT22;15212;48.830;8.730;2024-02-26T10:06:27;7.90;99.90
27848;DHT22;15212;48.830;8.730;2024-02-26T10:08:57;7.90;99.90
27848;DHT22;15212;48.830;8.730;2024-02-26T10:11:26;7.90;99.90
27848;DHT22;15212;48.830;8.730;2024-02-26T10:13:55;7.90;99.90
27848;DHT22;15212;48.830;8.730;2024-02-26T10:16:24;8.00;99.90
27848;DHT22;15212;48.830;8.730;2024-02-26T10:18:53;8.10;99.90
27848;DHT22;15212;48.830;8.730;2024-02-26T10:21:22;8.10;99.90
27848;DHT22;15212;48.830;8.730;2024-02-26T10:23:51;8.20;99.90
27848;DHT22;15212;48.830;8.730;2024-02-26T10:26:20;8.20;99.90
27848;DHT22;15212;48.830;8.730;2024-02-26T10:28:49;8.30;99.90
27848;DHT22;15212;48.830;8.730;2024-02-26T10:31:18;8.40;99.90
27848;DHT22;15212;48.830;8.730;2024-02-26T10:33:46;8.50;99.90
27848;DHT22;15212;48.830;8.730;2024-02-26T10:36:15;8.60;99.90
27848;DHT22;15212;48.830;8.730;2024-02-26T10:38:43;8.80;99.90
27848;DHT22;15212;48.830;8.730;2024-02-26T10:41:15;8.90;99.90
27848;DHT22;15212;48.830;8.730;2024-02-26T10:43:43;9.00;99.90
27848;DHT22;15212;48.830;8.730;2024-02-26T10:46:11;9.00;99.90
27848;DHT22;15212;48.830;8.730;2024-02-26T10:48:40;9.10;99.90
27848;DHT22;15212;48.830;8.730;2024-02-26T10:51:11;9.20;99.90
27848;DHT22;15212;48.830;8.730;2024-02-26T10:53:43;9.40;99.90
27848;DHT22;15212;48.830;8.730;2024-02-26T10:56:14;9.50;99.90
27848;DHT22;15212;48.830;8.730;2024-02-26T10:58:46;9.60;99.90
27848;DHT22;15212;48.830;8.730;2024-02-26T11:01:15;9.60;99.90
27848;DHT22;15212;48.830;8.730;2024-02-26T11:03:45;9.70;99.90
27848;DHT22;15212;48.830;8.730;2024-02-26T11:06:14;9.80;99.90
27848;DHT22;15212;48.830;8.730;2024-02-26T11:08:43;10.00;99.90
27848;DHT22;15212;48.830;8.730;2024-02-26T11:11:12;10.00;99.90
27848;DHT22;15212;48.830;8.730;2024-02-26T11:13:44;10.10;99.90
27848;DHT22;15212;48.830;8.730;2024-02-26T11:16:25;10.10;99.90
27848;DHT22;15212;48.830;8.730;2024-02-26T11:18:49;10.10;99.90
27848;DHT22;15212;48.830;8.730;2024-02-26T11:21:22;10.00;99.90
27848;DHT22;15212;48.830;8.730;2024-02-26T11:23:52;9.90;99.90
27848;DHT22;15212;48.830;8.730;2024-02-26T11:26:22;9.90;99.90
27848;DHT22;15212;48.830;8.730;2024-02-26T11:28:52;9.90;99.90
27848;DHT22;15212;48.830;8.730;2024-02-26T11:31:24;9.90;99.90
27848;DHT22;15212;48.830;8.730;2024-02-26T11:33:55;9.90;99.90
27848;DHT22;15212;48.830;8.730;2024-02-26T11:36:24;10.00;99.90
27848;DHT22;15212;48.830;8.730;2024-02-26T11:38:53;10.30;99.90
27848;DHT22;15212;48.830;8.730;2024-02-26T11:41:23;10.50;99.90
27848;DHT22;15212;48.830;8.730;2024-02-26T11:43:59;10.60;99.90
27848;DHT22;15212;48.830;8.730;2024-02-26T11:46:33;10.80;99.90
27848;DHT22;15212;48.830;8.730;2024-02-26T11:51:58;10.90;99.90
27848;DHT22;15212;48.830;8.730;2024-02-26T12:00:13;11.00;99.90
27848;DHT22;15212;48.830;8.730;2024-02-26T12:02:52;11.00;99.90
27848;DHT22;15212;48.830;8.730;2024-02-26T12:05:21;11.10;99.90
27848;DHT22;15212;48.830;8.730;2024-02-26T12:07:55;11.20;99.90
27848;DHT22;15212;48.830;8.730;2024-02-26T12:10:37;11.20;99.90
27848;DHT22;15212;48.830;8.730;2024-02-26T12:13:13;11.30;99.90
27848;DHT22;15212;48.830;8.730;2024-02-26T12:18:25;11.20;99.90
27848;DHT22;15212;48.830;8.730;2024-02-26T12:21:00;11.10;99.90
27848;DHT22;15212;48.830;8.730;2024-02-26T12:23:30;11.00;99.90
27848;DHT22;15212;48.830;8.730;2024-02-26T12:26:00;10.90;99.90
27848;DHT22;15212;48.830;8.730;2024-02-26T12:28:32;10.90;99.90
27848;DHT22;15212;48.830;8.730;2024-02-26T12:31:00;10.80;99.90
27848;DHT22;15212;48.830;8.730;2024-02-26T12:33:29;10.90;99.90
27848;DHT22;15212;48.830;8.730;2024-02-26T12:35:58;10.90;99.90
27848;DHT22;15212;48.830;8.730;2024-02-26T12:38:27;11.00;99.90
27848;DHT22;15212;48.830;8.730;2024-02-26T12:40:56;11.00;99.90
27848;DHT22;15212;48.830;8.730;2024-02-26T12:43:26;11.10;99.90
27848;DHT22;15212;48.830;8.730;2024-02-26T12:45:55;11.20;99.90
27848;DHT22;15212;48.830;8.730;2024-02-26T12:48:23;11.20;99.90
27848;DHT22;15212;48.830;8.730;2024-02-26T12:50:52;11.30;99.90
27848;DHT22;15212;48.830;8.730;2024-02-26T12:53:22;11.40;99.90
27848;DHT22;15212;48.830;8.730;2024-02-26T12:55:51;11.40;99.90
27848;DHT22;15212;48.830;8.730;2024-02-26T12:58:20;11.50;99.90
27848;DHT22;15212;48.830;8.730;2024-02-26T13:00:52;11.50;99.90
27848;DHT22;15212;48.830;8.730;2024-02-26T13:03:23;11.50;99.90
27848;DHT22;15212;48.830;8.730;2024-02-26T13:05:51;11.50;99.90
27848;DHT22;15212;48.830;8.730;2024-02-26T13:08:21;11.50;99.90
27848;DHT22;15212;48.830;8.730;2024-02-26T13:10:50;11.60;99.90
27848;DHT22;15212;48.830;8.730;2024-02-26T13:13:19;11.50;99.90
27848;DHT22;15212;48.830;8.730;2024-02-26T13:15:48;11.50;99.90
27848;DHT22;15212;48.830;8.730;2024-02-26T13:18:16;11.50;99.90
27848;DHT22;15212;48.830;8.730;2024-02-26T13:20:44;11.40;99.90
27848;DHT22;15212;48.830;8.730;2024-02-26T13:23:13;11.40;99.90
27848;DHT22;15212;48.830;8.730;2024-02-26T13:25:42;11.30;99.90
27848;DHT22;15212;48.830;8.730;2024-02-26T13:28:15;11.30;99.90
27848;DHT22;15212;48.830;8.730;2024-02-26T13:30:52;11.40;99.90
27848;DHT22;15212;48.830;8.730;2024-02-26T13:33:28;11.40;99.90
27848;DHT22;15212;48.830;8.730;2024-02-26T13:35:57;11.40;99.90
27848;DHT22;15212;48.830;8.730;2024-02-26T13:38:27;11.40;99.90
27848;DHT22;15212;48.830;8.730;2024-02-26T13:40:56;11.50;99.90
27848;DHT22;15212;48.830;8.730;2024-02-26T13:43:24;11.50;99.90
27848;DHT22;15212;48.830;8.730;2024-02-26T13:45:52;11.50;99.90
27848;DHT22;15212;48.830;8.730;2024-02-26T13:48:21;11.40;99.90
27848;DHT22;15212;48.830;8.730;2024-02-26T13:50:49;11.40;99.90
27848;DHT22;15212;48.830;8.730;2024-02-26T13:53:18;11.40;99.90
27848;DHT22;15212;48.830;8.730;2024-02-26T13:55:46;11.50;99.90
27848;DHT22;15212;48.830;8.730;2024-02-26T13:58:14;11.60;99.90
27848;DHT22;15212;48.830;8.730;2024-02-26T14:00:44;11.70;99.90
27848;DHT22;15212;48.830;8.730;2024-02-26T14:03:14;11.80;99.90
27848;DHT22;15212;48.830;8.730;2024-02-26T14:05:43;11.80;99.90
27848;DHT22;15212;48.830;8.730;2024-02-26T14:08:11;11.90;99.90
27848;DHT22;15212;48.830;8.730;2024-02-26T14:10:39;12.00;99.90
27848;DHT22;15212;48.830;8.730;2024-02-26T14:13:08;12.00;99.90
27848;DHT22;15212;48.830;8.730;2024-02-26T14:15:36;12.00;99.90
27848;DHT22;15212;48.830;8.730;2024-02-26T14:18:06;12.00;99.90
27848;DHT22;15212;48.830;8.730;2024-02-26T14:20:35;12.00;99.90
27848;DHT22;15212;48.830;8.730;2024-02-26T14:23:03;12.10;99.90
27848;DHT22;15212;48.830;8.730;2024-02-26T14:25:32;12.10;99.90
27848;DHT22;15212;48.830;8.730;2024-02-26T14:28:00;12.00;99.90
27848;DHT22;15212;48.830;8.730;2024-02-26T14:30:28;12.10;99.90
27848;DHT22;15212;48.830;8.730;2024-02-26T14:32:57;12.10;99.90
27848;DHT22;15212;48.830;8.730;2024-02-26T14:35:25;12.10;99.90
27848;DHT22;15212;48.830;8.730;2024-02-26T14:37:54;12.10;99.90
27848;DHT22;15212;48.830;8.730;2024-02-26T14:40:24;12.00;99.90
27848;DHT22;15212;48.830;8.730;2024-02-26T14:42:52;12.00;99.90
27848;DHT22;15212;48.830;8.730;2024-02-26T14:45:21;12.00;99.90
27848;DHT22;15212;48.830;8.730;2024-02-26T14:47:49;12.00;99.90
27848;DHT22;15212;48.830;8.730;2024-02-26T14:50:17;11.90;99.90
27848;DHT22;15212;48.830;8.730;2024-02-26T14:52:46;11.80;99.90
27848;DHT22;15212;48.830;8.730;2024-02-26T14:55:14;11.80;99.90
27848;DHT22;15212;48.830;8.730;2024-02-26T14:57:43;11.70;99.90
27848;DHT22;15212;48.830;8.730;2024-02-26T15:00:11;11.70;99.90
27848;DHT22;15212;48.830;8.730;2024-02-26T15:02:40;11.60;99.90
27848;DHT22;15212;48.830;8.730;2024-02-26T15:05:08;11.60;99.90
27848;DHT22;15212;48.830;8.730;2024-02-26T15:07:38;11.60;99.90
27848;DHT22;15212;48.830;8.730;2024-02-26T15:10:09;11.60;99.90
27848;DHT22;15212;48.830;8.730;2024-02-26T15:12:39;11.60;99.90
27848;DHT22;15212;48.830;8.730;2024-02-26T15:15:08;11.60;99.90
27848;DHT22;15212;48.830;8.730;2024-02-26T15:17:36;11.60;99.90
27848;DHT22;15212;48.830;8.730;2024-02-26T15:20:06;11.60;99.90
27848;DHT22;15212;48.830;8.730;2024-02-26T15:22:37;11.60;99.90
27848;DHT22;15212;48.830;8.730;2024-02-26T15:25:06;11.60;99.90
27848;DHT22;15212;48.830;8.730;2024-02-26T15:27:35;11.50;99.90
27848;DHT22;15212;48.830;8.730;2024-02-26T15:30:04;11.50;99.90
27848;DHT22;15212;48.830;8.730;2024-02-26T15:32:33;11.50;99.90
27848;DHT22;15212;48.830;8.730;2024-02-26T15:35:01;11.40;99.90
27848;DHT22;15212;48.830;8.730;2024-02-26T15:37:29;11.40;99.90
27848;DHT22;15212;48.830;8.730;2024-02-26T15:39:58;11.40;99.90
27848;DHT22;15212;48.830;8.730;2024-02-26T15:42:26;11.40;99.90
27848;DHT22;15212;48.830;8.730;2024-02-26T15:44:55;11.40;99.90
27848;DHT22;15212;48.830;8.730;2024-02-26T15:47:23;11.40;99.90
27848;DHT22;15212;48.830;8.730;2024-02-26T15:49:52;11.40;99.90
27848;DHT22;15212;48.830;8.730;2024-02-26T15:52:20;11.40;99.90
27848;DHT22;15212;48.830;8.730;2024-02-26T15:54:49;11.30;99.90
27848;DHT22;15212;48.830;8.730;2024-02-26T15:57:19;11.30;99.90
27848;DHT22;15212;48.830;8.730;2024-02-26T15:59:47;11.20;99.90
27848;DHT22;15212;48.830;8.730;2024-02-26T16:02:17;11.20;99.90
27848;DHT22;15212;48.830;8.730;2024-02-26T16:04:47;11.10;99.90
27848;DHT22;15212;48.830;8.730;2024-02-26T16:07:22;11.00;99.90